sensor_id;sensor_type;location;lat;lon;timestamp;temperature;humidity
15666;DHT22;20725;51.196;3.510;2022-10-16T00:01:42;14.00;98.70
15666;DHT22;20725;51.196;3.510;2022-10-16T00:04:09;14.00;99.00
15666;DHT22;20725;51.196;3.510;2022-10-16T00:06:36;13.90;99.20
15666;DHT22;20725;51.196;3.510;2022-10-16T00:09:03;13.80;99.80
15666;DHT22;20725;51.196;3.510;2022-10-16T00:11:33;13.80;99.90
15666;DHT22;20725;51.196;3.510;2022-10-16T00:14:04;13.70;99.90
15666;DHT22;20725;51.196;3.510;2022-10-16T00:16:33;13.60;99.90
15666;DHT22;20725;51.196;3.510;2022-10-16T00:19:00;13.50;99.90
15666;DHT22;20725;51.196;3.510;2022-10-16T00:21:29;13.50;99.90
15666;DHT22;20725;51.196;3.510;2022-10-16T00:23:59;13.50;99.90
15666;DHT22;20725;51.196;3.510;2022-10-16T00:26:40;13.40;99.90
15666;DHT22;20725;51.196;3.510;2022-10-16T00:29:07;13.40;99.90
15666;DHT22;20725;51.196;3.510;2022-10-16T00:31:37;13.30;99.90
15666;DHT22;20725;51.196;3.510;2022-10-16T00:34:04;13.30;99.90
15666;DHT22;20725;51.196;3.510;2022-10-16T00:36:30;13.30;99.90
15666;DHT22;20725;51.196;3.510;2022-10-16T00:38:57;13.30;99.90
15666;DHT22;20725;51.196;3.510;2022-10-16T00:41:27;13.30;99.90
15666;DHT22;20725;51.196;3.510;2022-10-16T00:43:54;13.30;99.90
15666;DHT22;20725;51.196;3.510;2022-10-16T00:46:24;13.30;99.90
15666;DHT22;20725;51.196;3.510;2022-10-16T00:48:56;13.30;99.90
15666;DHT22;20725;51.196;3.510;2022-10-16T00:51:30;13.30;99.90
15666;DHT22;20725;51.196;3.510;2022-10-16T00:53:57;13.30;99.90
15666;DHT22;20725;51.196;3.510;2022-10-16T00:56:24;13.30;99.90
15666;DHT22;20725;51.196;3.510;2022-10-16T00:58:51;13.30;99.90
15666;DHT22;20725;51.196;3.510;2022-10-16T01:01:18;13.30;99.90
15666;DHT22;20725;51.196;3.510;2022-10-16T01:03:49;13.20;99.90
15666;DHT22;20725;51.196;3.510;2022-10-16T01:06:30;13.10;99.90
15666;DHT22;20725;51.196;3.510;2022-10-16T01:09:13;13.00;99.90
15666;DHT22;20725;51.196;3.510;2022-10-16T01:11:53;13.00;99.90
15666;DHT22;20725;51.196;3.510;2022-10-16T01:14:23;12.90;99.90
15666;DHT22;20725;51.196;3.510;2022-10-16T01:16:56;12.90;99.90
15666;DHT22;20725;51.196;3.510;2022-10-16T01:19:30;12.90;99.90
15666;DHT22;20725;51.196;3.510;2022-10-16T01:22:07;12.90;99.90
15666;DHT22;20725;51.196;3.510;2022-10-16T01:24:38;12.90;99.90
15666;DHT22;20725;51.196;3.510;2022-10-16T01:27:13;12.80;99.90
15666;DHT22;20725;51.196;3.510;2022-10-16T01:29:44;12.80;99.90
15666;DHT22;20725;51.196;3.510;2022-10-16T01:32:15;12.80;99.90
15666;DHT22;20725;51.196;3.510;2022-10-16T01:34:48;12.70;99.90
15666;DHT22;20725;51.196;3.510;2022-10-16T01:37:32;12.70;99.90
15666;DHT22;20725;51.196;3.510;2022-10-16T01:40:08;12.80;99.90
15666;DHT22;20725;51.196;3.510;2022-10-16T01:42:40;12.70;99.90
15666;DHT22;20725;51.196;3.510;2022-10-16T01:45:10;12.70;99.90
15666;DHT22;20725;51.196;3.510;2022-10-16T01:47:41;12.70;99.90
15666;DHT22;20725;51.196;3.510;2022-10-16T01:50:09;12.70;99.90
15666;DHT22;20725;51.196;3.510;2022-10-16T01:52:38;12.70;99.90
15666;DHT22;20725;51.196;3.510;2022-10-16T01:55:13;12.70;99.90
15666;DHT22;20725;51.196;3.510;2022-10-16T01:57:45;12.80;99.90
15666;DHT22;20725;51.196;3.510;2022-10-16T02:05:55;12.90;99.90
15666;DHT22;20725;51.196;3.510;2022-10-16T02:11:35;13.00;99.90
15666;DHT22;20725;51.196;3.510;2022-10-16T02:14:26;13.00;99.90
15666;DHT22;20725;51.196;3.510;2022-10-16T02:16:58;13.00;99.90
15666;DHT22;20725;51.196;3.510;2022-10-16T02:19:49;13.00;99.90
15666;DHT22;20725;51.196;3.510;2022-10-16T02:22:28;13.00;99.90
15666;DHT22;20725;51.196;3.510;2022-10-16T02:25:19;12.90;99.90
15666;DHT22;20725;51.196;3.510;2022-10-16T02:28:09;12.90;99.90
15666;DHT22;20725;51.196;3.510;2022-10-16T02:58:15;12.80;99.90
15666;DHT22;20725;51.196;3.510;2022-10-16T05:18:16;12.70;99.90
15666;DHT22;20725;51.196;3.510;2022-10-16T05:21:04;12.70;99.90
15666;DHT22;20725;51.196;3.510;2022-10-16T05:23:48;12.70;99.90
15666;DHT22;20725;51.196;3.510;2022-10-16T05:26:38;12.70;99.90
15666;DHT22;20725;51.196;3.510;2022-10-16T05:29:27;12.80;99.90
15666;DHT22;20725;51.196;3.510;2022-10-16T17:14:24;16.80;90.40
15666;DHT22;20725;51.196;3.510;2022-10-16T17:17:02;16.70;90.80
15666;DHT22;20725;51.196;3.510;2022-10-16T17:19:44;16.70;91.10
15666;DHT22;20725;51.196;3.510;2022-10-16T17:22:26;16.70;91.30
15666;DHT22;20725;51.196;3.510;2022-10-16T17:25:07;16.70;91.50
15666;DHT22;20725;51.196;3.510;2022-10-16T17:27:51;16.70;91.60
